Time;durP1;ratioP1;P1;durP2;ratioP2;P2;SDS_P1;SDS_P2;PMS_P1;PMS_P2;Temp;Humidity;BMP_temperature;BMP_pressure;BME280_temperature;BME280_humidity;BME280_pressure;Samples;Min_cycle;Max_cycle;Signal;HPM_P1;HPM_P2
2023/03/02 00:01:28;;;;;;;19.13;6.53;;;3.30;99.90;;;;;;5056664;28;20036;-74
2023/03/02 00:03:57;;;;;;;19.02;6.93;;;3.20;99.90;;;;;;5005558;28;20107;-74
2023/03/02 00:06:24;;;;;;;19.95;7.05;;;3.20;99.90;;;;;;5056224;28;20041;-74
2023/03/02 00:08:50;;;;;;;15.50;6.75;;;3.20;99.90;;;;;;5055555;28;20585;-74
2023/03/02 00:11:15;;;;;;;21.75;7.85;;;3.20;99.90;;;;;;5019533;28;20083;-74
2023/03/02 00:13:42;;;;;;;16.30;6.85;;;3.10;99.90;;;;;;5054463;28;20052;-74
2023/03/02 00:16:08;;;;;;;19.55;7.20;;;3.10;99.90;;;;;;5057331;28;20094;-74
2023/03/02 00:18:33;;;;;;;13.18;6.45;;;3.10;99.90;;;;;;5040550;28;20040;-74
2023/03/02 00:20:59;;;;;;;19.23;7.75;;;3.10;99.90;;;;;;5021426;28;20775;-74
2023/03/02 00:23:24;;;;;;;17.83;7.38;;;3.10;99.90;;;;;;5050245;28;20106;-74
2023/03/02 00:25:50;;;;;;;16.65;6.85;;;3.10;99.90;;;;;;5021992;28;20038;-75
2023/03/02 00:28:16;;;;;;;20.15;7.30;;;3.10;99.90;;;;;;5021685;28;20065;-74
2023/03/02 00:30:41;;;;;;;24.38;7.18;;;3.10;99.90;;;;;;5040326;28;20579;-74
2023/03/02 00:33:07;;;;;;;18.27;7.00;;;3.10;99.90;;;;;;5052699;28;20045;-74
2023/03/02 00:35:38;;;;;;;20.35;6.93;;;3.10;99.90;;;;;;5021381;28;20037;-74
2023/03/02 00:38:03;;;;;;;22.45;7.07;;;3.00;99.90;;;;;;5056348;28;20088;-74
2023/03/02 00:40:29;;;;;;;19.88;7.18;;;3.10;99.90;;;;;;5052302;28;20030;-74
2023/03/02 00:42:54;;;;;;;17.63;7.53;;;3.00;99.90;;;;;;5038066;28;20037;-74
2023/03/02 00:45:20;;;;;;;18.70;7.32;;;3.00;99.90;;;;;;5020765;28;20116;-74
2023/03/02 00:47:46;;;;;;;18.95;7.38;;;3.00;99.90;;;;;;5023464;28;20041;-74
2023/03/02 00:50:11;;;;;;;17.88;7.13;;;3.00;99.90;;;;;;5019561;28;20030;-74
2023/03/02 00:52:37;;;;;;;19.17;7.28;;;3.00;99.90;;;;;;5020868;28;20045;-74
2023/03/02 00:55:03;;;;;;;20.48;8.18;;;3.00;99.90;;;;;;5019593;28;20124;-74
2023/03/02 00:57:28;;;;;;;24.77;7.25;;;2.90;99.90;;;;;;5022642;28;20042;-74
2023/03/02 00:59:54;;;;;;;18.13;6.90;;;2.90;99.90;;;;;;5004746;28;20569;-74
2023/03/02 01:02:20;;;;;;;19.25;6.57;;;2.90;99.90;;;;;;5038307;28;20044;-74
2023/03/02 01:04:47;;;;;;;19.70;7.15;;;2.90;99.90;;;;;;5018306;28;20045;-74
2023/03/02 01:07:16;;;;;;;17.23;6.20;;;2.80;99.90;;;;;;5056931;28;20037;-74
2023/03/02 01:09:43;;;;;;;20.17;7.13;;;2.90;99.90;;;;;;5004438;28;20046;-74
2023/03/02 01:12:10;;;;;;;15.55;5.80;;;2.90;99.90;;;;;;5056236;28;20037;-74
2023/03/02 01:14:41;;;;;;;19.33;5.75;;;2.90;99.90;;;;;;5054115;28;20139;-74
2023/03/02 01:17:09;;;;;;;14.73;6.45;;;2.90;99.90;;;;;;5053915;28;20061;-74
2023/03/02 01:19:35;;;;;;;18.63;5.80;;;2.90;99.90;;;;;;5053519;28;20033;-74
2023/03/02 01:22:00;;;;;;;16.38;6.78;;;2.90;99.90;;;;;;5022106;28;20409;-74
2023/03/02 01:24:26;;;;;;;19.58;6.65;;;2.90;99.90;;;;;;5020239;28;20037;-74
2023/03/02 01:26:52;;;;;;;16.20;5.05;;;2.90;99.90;;;;;;5037479;28;20091;-74
2023/03/02 01:29:18;;;;;;;18.95;6.72;;;2.90;99.90;;;;;;5006742;28;20053;-74
2023/03/02 01:31:43;;;;;;;18.08;5.70;;;2.90;99.90;;;;;;5054079;28;20120;-74
2023/03/02 01:34:09;;;;;;;17.52;6.63;;;2.90;99.90;;;;;;5024656;28;20128;-74
2023/03/02 01:36:34;;;;;;;19.95;6.95;;;2.90;99.90;;;;;;5008700;28;20053;-74
2023/03/02 01:39:00;;;;;;;17.83;6.15;;;2.90;99.90;;;;;;5025243;28;20120;-74
2023/03/02 01:41:27;;;;;;;15.45;5.47;;;2.90;99.90;;;;;;5052397;28;20036;-74
2023/03/02 01:43:52;;;;;;;14.85;5.38;;;2.90;99.90;;;;;;5058917;28;20033;-74
2023/03/02 01:46:20;;;;;;;17.25;6.43;;;2.90;99.90;;;;;;5024511;28;20045;-74
2023/03/02 01:49:00;;;;;;;14.95;6.68;;;2.90;99.90;;;;;;5058406;28;20036;-74
2023/03/02 01:51:29;;;;;;;17.80;6.50;;;2.90;99.90;;;;;;5040560;28;20059;-74
2023/03/02 01:54:03;;;;;;;18.42;5.95;;;2.80;99.90;;;;;;5023905;28;20045;-74
2023/03/02 01:56:35;;;;;;;18.17;6.60;;;2.80;99.90;;;;;;5055927;28;20052;-74
2023/03/02 01:59:06;;;;;;;20.55;7.25;;;2.80;99.90;;;;;;5024742;28;20037;-74
2023/03/02 02:01:35;;;;;;;18.92;6.50;;;2.70;99.90;;;;;;5052779;28;20769;-74
2023/03/02 02:04:01;;;;;;;16.40;7.03;;;2.70;99.90;;;;;;5055032;28;20033;-74
2023/03/02 02:06:39;;;;;;;19.45;7.22;;;2.70;99.90;;;;;;5025329;28;20051;-74
2023/03/02 02:09:09;;;;;;;16.88;6.78;;;2.70;99.90;;;;;;5055210;28;20037;-74
2023/03/02 02:11:35;;;;;;;21.63;7.45;;;2.60;99.90;;;;;;5056763;28;20041;-74
2023/03/02 02:14:02;;;;;;;19.52;6.47;;;2.70;99.90;;;;;;5057531;28;20246;-74
2023/03/02 02:16:31;;;;;;;17.85;7.05;;;2.60;99.90;;;;;;5056757;28;20040;-74
2023/03/02 02:18:57;;;;;;;20.10;6.75;;;2.60;99.90;;;;;;5025985;28;20038;-74
2023/03/02 02:21:25;;;;;;;18.10;6.95;;;2.60;99.90;;;;;;5052642;28;20041;-74
2023/03/02 02:24:10;;;;;;;18.17;6.95;;;2.60;99.90;;;;;;5040578;28;20041;-74
2023/03/02 02:26:46;;;;;;;20.05;6.90;;;2.70;99.90;;;;;;5024151;28;20034;-74
2023/03/02 02:29:31;;;;;;;17.55;6.07;;;2.70;99.90;;;;;;5058549;28;20096;-74
2023/03/02 02:32:05;;;;;;;16.63;6.55;;;2.60;99.90;;;;;;5007601;28;20415;-74
2023/03/02 02:34:36;;;;;;;17.60;6.47;;;2.60;99.90;;;;;;5024953;28;20140;-74
2023/03/02 02:37:11;;;;;;;16.10;6.70;;;2.60;99.90;;;;;;5056641;28;20041;-74
2023/03/02 02:39:42;;;;;;;21.00;6.60;;;2.50;99.90;;;;;;5023312;28;20086;-74
2023/03/02 02:42:15;;;;;;;15.45;6.28;;;2.50;99.90;;;;;;5037466;28;20124;-74
2023/03/02 02:44:40;;;;;;;14.55;5.78;;;2.50;99.90;;;;;;5056878;28;20332;-74
2023/03/02 02:47:17;;;;;;;17.70;7.10;;;2.50;99.90;;;;;;5040480;28;20581;-74
2023/03/02 02:49:43;;;;;;;16.38;6.43;;;2.50;99.90;;;;;;5011170;28;20037;-74
2023/03/02 02:52:14;;;;;;;19.70;7.13;;;2.50;99.90;;;;;;5056839;28;20045;-74
2023/03/02 02:54:42;;;;;;;21.42;7.53;;;2.50;99.90;;;;;;5055250;28;20049;-74
2023/03/02 02:57:10;;;;;;;18.60;5.93;;;2.50;99.90;;;;;;5009027;28;20040;-74
2023/03/02 02:59:42;;;;;;;20.10;7.28;;;2.50;99.90;;;;;;5005924;28;20048;-74
2023/03/02 03:02:16;;;;;;;22.40;6.97;;;2.50;99.90;;;;;;5011519;28;20037;-74
2023/03/02 03:04:42;;;;;;;16.65;6.07;;;2.50;99.90;;;;;;5052405;28;20048;-74
2023/03/02 03:07:11;;;;;;;22.20;7.35;;;2.40;99.90;;;;;;5007536;28;20037;-74
2023/03/02 03:09:37;;;;;;;19.30;6.22;;;2.40;99.90;;;;;;5055606;28;20501;-74
2023/03/02 03:12:11;;;;;;;23.23;7.68;;;2.40;99.90;;;;;;5022767;28;20046;-74
2023/03/02 03:14:39;;;;;;;24.63;6.30;;;2.40;99.90;;;;;;5023491;28;20069;-74
2023/03/02 03:17:12;;;;;;;18.33;6.60;;;2.40;99.90;;;;;;5055686;28;20084;-74
2023/03/02 03:19:41;;;;;;;20.25;6.82;;;2.40;99.90;;;;;;5006553;28;20045;-74
2023/03/02 03:22:10;;;;;;;18.30;6.30;;;2.40;99.90;;;;;;5007828;28;20061;-74
2023/03/02 03:24:37;;;;;;;18.67;6.95;;;2.40;99.90;;;;;;5055011;28;20041;-74
2023/03/02 03:27:04;;;;;;;15.90;6.43;;;2.30;99.90;;;;;;5058515;28;20037;-74
2023/03/02 03:29:31;;;;;;;16.17;5.43;;;2.30;99.90;;;;;;5006447;28;21869;-74
2023/03/02 03:31:58;;;;;;;17.08;5.82;;;2.40;99.90;;;;;;5021311;28;20053;-74
2023/03/02 03:34:25;;;;;;;13.35;6.57;;;2.30;99.90;;;;;;5009559;28;20414;-74
2023/03/02 03:36:51;;;;;;;17.20;7.05;;;2.30;99.90;;;;;;5007710;28;20614;-74
2023/03/02 03:39:17;;;;;;;19.50;6.45;;;2.30;99.90;;;;;;5052990;28;20124;-74
2023/03/02 03:41:43;;;;;;;19.65;6.80;;;2.30;99.90;;;;;;5055833;28;20046;-74
2023/03/02 03:44:09;;;;;;;15.98;5.38;;;2.30;99.90;;;;;;5020008;28;20372;-74
2023/03/02 03:46:34;;;;;;;16.45;6.40;;;2.30;99.90;;;;;;5055424;28;20059;-74
2023/03/02 03:49:00;;;;;;;21.90;7.45;;;2.30;99.90;;;;;;5008096;28;20513;-74
2023/03/02 03:51:26;;;;;;;10.20;5.05;;;2.20;99.90;;;;;;5054648;28;20099;-74
2023/03/02 03:54:01;;;;;;;12.65;5.03;;;2.20;99.90;;;;;;5053053;28;20549;-74
2023/03/02 03:56:28;;;;;;;17.10;5.32;;;2.20;99.90;;;;;;5055479;28;20045;-74
2023/03/02 03:59:05;;;;;;;14.60;5.03;;;2.20;99.90;;;;;;5057043;28;20041;-74
2023/03/02 04:01:36;;;;;;;18.52;5.68;;;2.20;99.90;;;;;;5033736;28;20048;-74
2023/03/02 04:04:03;;;;;;;14.35;5.50;;;2.20;99.90;;;;;;5006731;28;20025;-74
2023/03/02 04:06:29;;;;;;;16.35;5.63;;;2.20;99.90;;;;;;5055241;28;20060;-74
2023/03/02 04:08:55;;;;;;;15.93;5.82;;;2.20;99.90;;;;;;5023459;28;20037;-74
2023/03/02 04:11:21;;;;;;;13.38;4.28;;;2.30;99.90;;;;;;5054139;28;20109;-74
2023/03/02 04:13:47;;;;;;;14.73;5.13;;;2.30;99.90;;;;;;5023209;28;20030;-74
2023/03/02 04:16:13;;;;;;;12.48;5.38;;;2.30;99.90;;;;;;5020258;28;20044;-74
2023/03/02 04:18:39;;;;;;;14.52;6.50;;;2.30;99.90;;;;;;5057147;28;20050;-74
2023/03/02 04:21:04;;;;;;;18.73;7.28;;;2.20;99.90;;;;;;5053787;28;20033;-74
2023/03/02 04:23:30;;;;;;;19.20;5.88;;;2.20;99.90;;;;;;5053971;28;20799;-74
2023/03/02 04:25:55;;;;;;;14.88;6.03;;;2.20;99.90;;;;;;5021527;28;20100;-74
2023/03/02 04:28:21;;;;;;;14.15;5.65;;;2.10;99.90;;;;;;5022679;28;20061;-74
2023/03/02 04:30:47;;;;;;;18.77;5.53;;;2.10;99.90;;;;;;5022494;28;20046;-74
2023/03/02 04:33:12;;;;;;;14.43;5.72;;;2.10;99.90;;;;;;5054096;28;20071;-74
2023/03/02 04:35:38;;;;;;;16.70;6.03;;;2.10;99.90;;;;;;5039981;28;20052;-74
2023/03/02 04:38:04;;;;;;;15.70;5.80;;;2.10;99.90;;;;;;5021412;28;20040;-74
2023/03/02 04:40:29;;;;;;;14.55;5.45;;;2.10;99.90;;;;;;5017142;28;20038;-74
2023/03/02 04:42:55;;;;;;;15.65;4.82;;;2.00;99.90;;;;;;5019778;28;20535;-74
2023/03/02 04:45:20;;;;;;;17.27;6.18;;;2.00;99.90;;;;;;5020050;28;20034;-74
2023/03/02 04:47:46;;;;;;;14.30;5.35;;;2.00;99.90;;;;;;5017946;28;20084;-74
2023/03/02 04:50:13;;;;;;;16.40;6.57;;;2.00;99.90;;;;;;5056543;28;20379;-74
2023/03/02 04:52:39;;;;;;;18.77;6.13;;;1.90;99.90;;;;;;5053975;28;20073;-74
2023/03/02 04:55:06;;;;;;;12.48;4.38;;;1.90;99.90;;;;;;5022605;28;20092;-74
2023/03/02 04:57:31;;;;;;;15.68;6.07;;;1.90;99.90;;;;;;5005318;28;20084;-74
2023/03/02 04:59:57;;;;;;;13.70;5.68;;;1.90;99.90;;;;;;5020858;28;20029;-74
2023/03/02 05:02:23;;;;;;;14.13;5.97;;;1.80;99.90;;;;;;5018161;28;20501;-74
2023/03/02 05:04:49;;;;;;;14.90;5.20;;;1.80;99.90;;;;;;5055713;28;20116;-74
2023/03/02 05:07:14;;;;;;;17.77;6.75;;;1.80;99.90;;;;;;5008124;28;20581;-74
2023/03/02 05:09:40;;;;;;;17.42;6.22;;;1.80;99.90;;;;;;5027047;28;20053;-74
2023/03/02 05:12:06;;;;;;;16.27;5.45;;;1.80;99.90;;;;;;5024865;28;20041;-74
2023/03/02 05:14:31;;;;;;;14.52;5.45;;;1.80;99.90;;;;;;5023239;28;20050;-74
2023/03/02 05:16:57;;;;;;;18.58;6.07;;;1.80;99.90;;;;;;5023103;28;20146;-74
2023/03/02 05:19:23;;;;;;;16.00;6.03;;;1.80;99.90;;;;;;5024000;28;20037;-74
2023/03/02 05:21:49;;;;;;;17.52;6.63;;;1.80;99.90;;;;;;5023975;28;20043;-74
2023/03/02 05:24:14;;;;;;;18.58;6.50;;;1.90;99.90;;;;;;5030254;28;20507;-74
2023/03/02 05:26:40;;;;;;;17.70;6.15;;;1.80;99.90;;;;;;5009814;28;20493;-74
2023/03/02 05:29:06;;;;;;;22.40;7.10;;;1.90;99.90;;;;;;5059121;28;20054;-74
2023/03/02 05:31:35;;;;;;;46.63;7.38;;;1.90;99.90;;;;;;5023355;28;20090;-74
2023/03/02 05:34:02;;;;;;;20.75;6.60;;;1.90;99.90;;;;;;5025264;28;20041;-74
2023/03/02 05:36:28;;;;;;;15.18;6.57;;;1.90;99.90;;;;;;5058607;28;20049;-74
2023/03/02 05:38:54;;;;;;;18.08;5.25;;;1.90;99.90;;;;;;5026014;28;20045;-74
2023/03/02 05:41:19;;;;;;;21.20;6.90;;;1.90;99.90;;;;;;5021989;28;20528;-74
2023/03/02 05:43:45;;;;;;;20.20;6.63;;;1.90;99.90;;;;;;5025583;28;20045;-74
2023/03/02 05:46:10;;;;;;;14.10;5.78;;;1.90;99.90;;;;;;5024343;28;20046;-74
2023/03/02 05:48:36;;;;;;;22.65;5.97;;;1.90;99.90;;;;;;5042297;28;20386;-74
2023/03/02 05:51:03;;;;;;;15.38;5.97;;;1.80;99.90;;;;;;5022844;28;20041;-74
2023/03/02 05:53:28;;;;;;;26.10;7.05;;;1.80;99.90;;;;;;5055401;28;20803;-74
2023/03/02 05:55:54;;;;;;;20.35;6.20;;;1.80;99.90;;;;;;5004254;28;20124;-74
2023/03/02 05:58:20;;;;;;;21.38;7.32;;;1.80;99.90;;;;;;5055919;28;20064;-74
2023/03/02 06:00:47;;;;;;;18.08;7.18;;;1.80;99.90;;;;;;5053335;28;20120;-74
2023/03/02 06:03:13;;;;;;;19.15;6.93;;;1.80;99.90;;;;;;5051153;28;20113;-74
2023/03/02 06:05:39;;;;;;;18.60;5.60;;;1.70;99.90;;;;;;5020318;28;20033;-74
2023/03/02 06:08:05;;;;;;;20.40;8.18;;;1.70;99.90;;;;;;5056815;28;20099;-74
2023/03/02 06:10:32;;;;;;;17.88;7.05;;;1.70;99.90;;;;;;5054690;28;20376;-74
2023/03/02 06:12:57;;;;;;;17.10;5.68;;;1.70;99.90;;;;;;5032402;28;20500;-74
2023/03/02 06:15:23;;;;;;;17.60;6.32;;;1.60;99.90;;;;;;5007098;28;20042;-74
2023/03/02 06:17:49;;;;;;;22.80;7.68;;;1.60;99.90;;;;;;5026835;28;20040;-74
2023/03/02 06:20:15;;;;;;;15.23;5.93;;;1.70;99.90;;;;;;5021853;28;20052;-74
2023/03/02 06:22:44;;;;;;;22.00;6.47;;;1.60;99.90;;;;;;5039993;28;20156;-74
2023/03/02 06:25:11;;;;;;;16.77;6.72;;;1.70;99.90;;;;;;5055864;28;20079;-74
2023/03/02 06:27:38;;;;;;;16.08;5.95;;;1.60;99.90;;;;;;5022268;28;20037;-74
2023/03/02 06:30:05;;;;;;;14.93;5.30;;;1.60;99.90;;;;;;5055618;28;20049;-74
2023/03/02 06:32:33;;;;;;;15.50;5.10;;;1.50;99.90;;;;;;5054753;28;20560;-74
2023/03/02 06:35:03;;;;;;;11.38;4.88;;;1.50;99.90;;;;;;5007078;28;20053;-74
2023/03/02 06:37:30;;;;;;;23.92;7.40;;;1.50;99.90;;;;;;5022306;28;20115;-74
2023/03/02 06:39:56;;;;;;;13.25;5.55;;;1.50;99.90;;;;;;5019085;28;20502;-74
2023/03/02 06:42:23;;;;;;;18.73;6.70;;;1.50;99.90;;;;;;5006079;28;20041;-74
2023/03/02 06:44:50;;;;;;;17.58;6.55;;;1.50;99.90;;;;;;5018566;28;20120;-73
2023/03/02 06:47:20;;;;;;;16.65;6.45;;;1.50;99.90;;;;;;5057140;28;20572;-74
2023/03/02 06:49:46;;;;;;;18.40;6.70;;;1.50;99.90;;;;;;5005759;28;20033;-74
2023/03/02 06:52:13;;;;;;;15.13;6.43;;;1.50;99.90;;;;;;5002367;28;20558;-74
2023/03/02 06:54:39;;;;;;;14.45;5.55;;;1.60;99.90;;;;;;5016649;28;20149;-74
2023/03/02 06:57:04;;;;;;;17.85;5.57;;;1.60;99.90;;;;;;5056212;28;20121;-74
2023/03/02 06:59:30;;;;;;;18.05;6.28;;;1.60;99.90;;;;;;5005210;28;20573;-74
2023/03/02 07:01:56;;;;;;;12.73;5.50;;;1.60;99.90;;;;;;5020078;28;20124;-74
2023/03/02 07:04:21;;;;;;;16.10;6.55;;;1.60;99.90;;;;;;5036853;28;20095;-74
2023/03/02 07:06:47;;;;;;;14.20;5.18;;;1.70;99.90;;;;;;5056997;28;20080;-74
2023/03/02 07:09:13;;;;;;;15.73;5.93;;;1.70;99.90;;;;;;5020917;28;20035;-74
2023/03/02 07:11:39;;;;;;;16.55;6.60;;;1.70;99.90;;;;;;5021137;28;20092;-74
2023/03/02 07:14:04;;;;;;;15.60;5.72;;;1.70;99.90;;;;;;5054069;28;20184;-74
2023/03/02 07:16:31;;;;;;;17.35;6.20;;;1.70;99.90;;;;;;5014538;28;20128;-74
2023/03/02 07:18:57;;;;;;;19.88;7.13;;;1.70;99.90;;;;;;5019522;28;20043;-74
2023/03/02 07:21:22;;;;;;;17.02;5.72;;;1.70;99.90;;;;;;5026262;28;20037;-74
2023/03/02 07:23:48;;;;;;;15.50;7.18;;;1.80;99.90;;;;;;5022895;28;20033;-74
2023/03/02 07:26:14;;;;;;;19.58;6.03;;;1.80;99.90;;;;;;5021718;28;20383;-74
2023/03/02 07:28:40;;;;;;;16.77;5.75;;;1.80;99.90;;;;;;5019267;28;20080;-73
2023/03/02 07:31:07;;;;;;;14.38;5.72;;;1.80;99.90;;;;;;5004385;28;20461;-74
2023/03/02 07:33:34;;;;;;;13.88;5.35;;;1.80;99.90;;;;;;5021395;28;20672;-74
2023/03/02 07:35:59;;;;;;;14.90;5.35;;;1.80;99.90;;;;;;5019449;28;20037;-74
2023/03/02 07:38:25;;;;;;;14.68;5.53;;;1.80;99.90;;;;;;5021220;28;20395;-74
2023/03/02 07:40:51;;;;;;;15.07;5.15;;;1.80;99.90;;;;;;5017585;28;20281;-73
2023/03/02 07:43:17;;;;;;;12.45;5.43;;;1.80;99.90;;;;;;5018793;28;20025;-73
2023/03/02 07:45:42;;;;;;;13.75;4.53;;;1.80;99.90;;;;;;5014859;28;20119;-74
2023/03/02 07:48:08;;;;;;;17.17;5.63;;;1.80;99.90;;;;;;5022224;28;20048;-73
2023/03/02 07:50:34;;;;;;;12.95;4.72;;;1.70;99.90;;;;;;5011408;28;20418;-74
2023/03/02 07:52:59;;;;;;;13.68;5.03;;;1.60;99.90;;;;;;5004215;28;20060;-73
2023/03/02 07:55:25;;;;;;;12.30;5.13;;;1.50;99.90;;;;;;5020219;28;20080;-73
2023/03/02 07:57:51;;;;;;;12.90;4.82;;;1.60;99.90;;;;;;5056007;28;20458;-74
2023/03/02 08:00:17;;;;;;;12.20;5.05;;;1.60;99.90;;;;;;5021630;28;20507;-74
2023/03/02 08:02:43;;;;;;;9.60;4.45;;;1.50;99.90;;;;;;5019231;28;20037;-74
2023/03/02 08:05:10;;;;;;;11.57;4.00;;;1.60;99.90;;;;;;5021124;28;20044;-74
2023/03/02 08:07:35;;;;;;;12.02;4.90;;;1.60;99.90;;;;;;5051229;28;20038;-74
2023/03/02 08:10:01;;;;;;;10.73;4.72;;;1.60;99.90;;;;;;4996849;28;20049;-73
2023/03/02 08:12:27;;;;;;;14.20;5.22;;;1.50;99.90;;;;;;5058193;28;20037;-74
2023/03/02 08:14:53;;;;;;;12.70;5.15;;;1.60;99.90;;;;;;5021850;28;20041;-74
2023/03/02 08:17:19;;;;;;;13.00;5.45;;;1.60;99.90;;;;;;5014052;28;20046;-74
2023/03/02 08:19:45;;;;;;;12.77;4.60;;;1.60;99.90;;;;;;5020890;28;20033;-73
2023/03/02 08:22:10;;;;;;;13.40;6.55;;;1.60;99.90;;;;;;5049529;28;20071;-73
2023/03/02 08:24:36;;;;;;;9.93;4.50;;;1.60;99.90;;;;;;5016282;28;20116;-74
2023/03/02 08:27:02;;;;;;;13.48;4.72;;;1.60;99.90;;;;;;5001830;28;20433;-74
2023/03/02 08:29:28;;;;;;;13.15;5.28;;;1.70;99.90;;;;;;5018345;28;20519;-74
2023/03/02 08:31:53;;;;;;;10.77;5.03;;;1.70;99.90;;;;;;5033406;28;20055;-74
2023/03/02 08:34:19;;;;;;;11.85;3.97;;;1.70;99.90;;;;;;5037196;28;20129;-73
2023/03/02 08:36:45;;;;;;;15.95;5.75;;;1.70;99.90;;;;;;5016525;28;20099;-74
2023/03/02 08:39:11;;;;;;;15.82;5.00;;;1.70;99.90;;;;;;5033276;28;20052;-74
2023/03/02 08:41:36;;;;;;;12.38;4.78;;;1.80;99.90;;;;;;5014659;28;20064;-73
2023/03/02 08:44:02;;;;;;;12.25;5.28;;;1.80;99.90;;;;;;5017349;28;20790;-75
2023/03/02 08:46:27;;;;;;;13.02;4.57;;;1.80;99.90;;;;;;5017350;28;20034;-73
2023/03/02 08:48:53;;;;;;;14.15;5.07;;;1.90;99.90;;;;;;5001905;28;20662;-73
2023/03/02 08:51:22;;;;;;;12.63;5.15;;;1.90;99.90;;;;;;5049608;28;20044;-73
2023/03/02 08:53:50;;;;;;;13.15;5.30;;;1.90;99.90;;;;;;5026153;28;20057;-73
2023/03/02 08:56:17;;;;;;;13.05;5.05;;;1.90;99.90;;;;;;5024839;28;20036;-73
2023/03/02 08:58:43;;;;;;;12.57;5.07;;;1.90;99.90;;;;;;5026583;28;20589;-74
2023/03/02 09:01:17;;;;;;;15.80;5.63;;;2.00;99.90;;;;;;5027132;28;20112;-74
2023/03/02 09:03:43;;;;;;;15.20;5.20;;;1.90;99.90;;;;;;5024999;28;20263;-73
2023/03/02 09:06:09;;;;;;;16.38;5.68;;;2.00;99.90;;;;;;5026658;28;20029;-73
2023/03/02 09:08:35;;;;;;;11.48;5.18;;;2.00;99.90;;;;;;5026750;28;20132;-73
2023/03/02 09:11:00;;;;;;;12.55;4.68;;;2.00;99.90;;;;;;5025586;28;20030;-74
2023/03/02 09:13:26;;;;;;;14.77;5.30;;;2.00;99.90;;;;;;5009751;28;20037;-73
2023/03/02 09:15:51;;;;;;;12.80;4.28;;;2.10;99.90;;;;;;5026549;28;20095;-73
2023/03/02 09:18:17;;;;;;;12.55;4.82;;;2.00;99.90;;;;;;5025356;28;20073;-73
2023/03/02 09:20:43;;;;;;;14.98;5.57;;;2.00;99.90;;;;;;5026326;28;20044;-73
2023/03/02 09:23:09;;;;;;;15.75;6.03;;;2.10;99.90;;;;;;5026087;28;20054;-73
2023/03/02 09:25:35;;;;;;;11.93;5.95;;;2.00;99.90;;;;;;5025344;28;20084;-74
2023/03/02 09:28:01;;;;;;;11.75;5.03;;;2.00;99.90;;;;;;5026333;28;20053;-73
2023/03/02 09:30:26;;;;;;;14.95;5.93;;;2.10;99.90;;;;;;5026052;28;20368;-73
2023/03/02 09:32:52;;;;;;;12.50;5.05;;;2.10;99.90;;;;;;5023223;28;20036;-73
2023/03/02 09:35:17;;;;;;;14.80;4.80;;;2.10;99.90;;;;;;5026055;28;20124;-73
2023/03/02 09:37:43;;;;;;;16.92;6.53;;;2.20;99.90;;;;;;5026133;28;20120;-74
2023/03/02 09:40:19;;;;;;;18.02;5.53;;;2.20;99.90;;;;;;5025404;28;20038;-73
2023/03/02 09:43:26;;;;;;;13.15;4.95;;;2.20;99.90;;;;;;5009304;28;20033;-73
2023/03/02 09:46:18;;;;;;;11.65;5.50;;;2.20;99.90;;;;;;4972369;28;20081;-73
2023/03/02 09:49:37;;;;;;;13.70;5.28;;;2.30;99.90;;;;;;5008846;28;20049;-73
2023/03/02 09:52:34;;;;;;;19.33;6.22;;;2.30;99.90;;;;;;4986959;28;20041;-73
2023/03/02 09:55:16;;;;;;;16.13;5.40;;;2.30;99.90;;;;;;5059707;28;20402;-73
2023/03/02 09:57:42;;;;;;;17.27;6.00;;;2.30;99.90;;;;;;5024176;28;20042;-74
2023/03/02 10:00:26;;;;;;;18.05;5.75;;;2.40;99.90;;;;;;5018048;28;20430;-73
2023/03/02 10:03:20;;;;;;;15.18;5.55;;;2.40;99.90;;;;;;5055952;28;20048;-72
2023/03/02 10:05:49;;;;;;;14.70;4.90;;;2.50;99.90;;;;;;5010365;28;20156;-73
2023/03/02 10:08:21;;;;;;;14.57;5.47;;;2.50;99.90;;;;;;5007304;28;20123;-73
2023/03/02 10:11:06;;;;;;;14.98;5.15;;;2.60;99.90;;;;;;5028320;28;20487;-73
2023/03/02 10:13:41;;;;;;;16.45;5.63;;;2.60;99.90;;;;;;5017895;28;20490;-73
2023/03/02 10:16:24;;;;;;;12.20;5.43;;;2.60;99.90;;;;;;5021443;28;20069;-73
2023/03/02 10:19:00;;;;;;;12.18;4.80;;;2.70;99.90;;;;;;5008248;28;20072;-73
2023/03/02 10:21:34;;;;;;;17.75;6.38;;;2.60;99.90;;;;;;5019503;28;20237;-73
2023/03/02 10:24:18;;;;;;;15.85;4.88;;;2.70;99.90;;;;;;5033693;28;20087;-73
2023/03/02 10:26:48;;;;;;;12.90;4.70;;;2.70;99.90;;;;;;5037778;28;20053;-73
2023/03/02 10:29:34;;;;;;;14.75;5.40;;;2.70;99.90;;;;;;5021208;28;20503;-73
2023/03/02 10:32:12;;;;;;;;;;;2.80;99.90;;;;;;5024914;28;20064;-73
2023/03/02 10:34:37;;;;;;;11.65;5.03;;;2.90;99.90;;;;;;5003809;28;19917;-73
2023/03/02 10:37:12;;;;;;;17.17;6.88;;;2.90;99.90;;;;;;5055318;28;20049;-73
2023/03/02 10:39:37;;;;;;;15.18;5.65;;;3.00;99.90;;;;;;5036082;28;20784;-73
2023/03/02 10:42:06;;;;;;;15.40;5.57;;;3.00;99.90;;;;;;5022155;28;20125;-73
2023/03/02 10:44:39;;;;;;;12.90;4.97;;;3.10;99.90;;;;;;5019265;28;20395;-73
2023/03/02 10:47:06;;;;;;;16.15;5.88;;;3.10;99.90;;;;;;5023298;28;20495;-73
2023/03/02 10:49:34;;;;;;;13.75;4.45;;;3.10;99.90;;;;;;5023589;28;20060;-73
2023/03/02 10:52:10;;;;;;;12.35;5.30;;;3.10;99.90;;;;;;5023623;28;20049;-73
2023/03/02 10:54:36;;;;;;;15.75;5.22;;;3.10;99.90;;;;;;5009309;28;20048;-73
2023/03/02 10:57:18;;;;;;;19.88;5.45;;;3.10;99.90;;;;;;5024773;28;20069;-73
2023/03/02 10:59:46;;;;;;;13.07;5.05;;;3.10;99.90;;;;;;5022233;28;20430;-73
2023/03/02 11:02:11;;;;;;;12.35;5.45;;;3.10;99.90;;;;;;5017996;28;20132;-73
2023/03/02 11:04:37;;;;;;;10.55;5.38;;;3.10;99.90;;;;;;5053760;28;20120;-73
2023/03/02 11:07:29;;;;;;;15.85;5.15;;;3.10;99.90;;;;;;5027384;28;20120;-73
2023/03/02 11:10:02;;;;;;;14.68;5.60;;;3.00;99.90;;;;;;5003009;28;20069;-73
2023/03/02 11:12:29;;;;;;;17.08;6.05;;;3.10;99.90;;;;;;5006061;28;20462;-76
2023/03/02 11:15:15;;;;;;;14.85;5.82;;;3.10;99.90;;;;;;5055493;28;20059;-73
2023/03/02 11:17:42;;;;;;;11.70;4.70;;;3.10;99.90;;;;;;5018589;28;20048;-73
2023/03/02 11:20:16;;;;;;;15.50;5.68;;;3.10;99.90;;;;;;5021490;28;20503;-73
2023/03/02 11:23:02;;;;;;;10.60;4.35;;;3.10;99.90;;;;;;5025050;28;20076;-73
2023/03/02 11:25:36;;;;;;;12.23;4.82;;;3.20;99.90;;;;;;5002996;28;20132;-73
2023/03/02 11:28:14;;;;;;;11.40;4.78;;;3.20;99.90;;;;;;5058639;28;20053;-73
2023/03/02 11:30:46;;;;;;;18.23;5.85;;;3.20;99.90;;;;;;5024226;28;20056;-73
2023/03/02 11:33:20;;;;;;;14.32;5.30;;;3.30;99.90;;;;;;5020213;28;20406;-73
2023/03/02 11:36:07;;;;;;;10.85;4.32;;;3.30;99.90;;;;;;5042050;28;20052;-73
2023/03/02 11:38:41;;;;;;;12.80;4.30;;;3.40;99.90;;;;;;5021887;28;20562;-73
2023/03/02 11:41:28;;;;;;;13.95;5.38;;;3.40;99.90;;;;;;5006182;28;20076;-73
2023/03/02 11:43:55;;;;;;;10.77;5.03;;;3.50;99.90;;;;;;5023956;28;20495;-73
2023/03/02 11:46:29;;;;;;;17.10;5.60;;;3.40;99.90;;;;;;5023640;28;20037;-73
2023/03/02 11:48:59;;;;;;;13.15;4.90;;;3.40;99.90;;;;;;5005408;28;20388;-73
2023/03/02 11:51:34;;;;;;;16.17;6.10;;;3.50;99.90;;;;;;5021182;28;20165;-73
2023/03/02 11:54:03;;;;;;;16.58;5.82;;;3.50;99.90;;;;;;5050822;28;20041;-73
2023/03/02 11:56:33;;;;;;;15.15;5.20;;;3.50;99.90;;;;;;5053760;28;20041;-73
2023/03/02 11:59:05;;;;;;;14.00;4.80;;;3.50;99.90;;;;;;5020271;28;20037;-77
2023/03/02 12:01:33;;;;;;;13.98;4.97;;;3.60;99.90;;;;;;5019598;28;20084;-76
2023/03/02 12:04:28;;;;;;;17.25;4.63;;;3.60;99.90;;;;;;5002165;28;20033;-77
2023/03/02 12:06:54;;;;;;;12.95;5.22;;;3.70;99.90;;;;;;5019429;28;20044;-73
2023/03/02 12:09:23;;;;;;;16.23;4.88;;;3.70;99.90;;;;;;5016483;28;20060;-76
2023/03/02 12:11:56;;;;;;;17.27;6.13;;;3.70;99.90;;;;;;5036445;28;20040;-74
2023/03/02 12:14:36;;;;;;;13.35;4.93;;;3.70;99.90;;;;;;5050938;28;20487;-73
2023/03/02 12:17:05;;;;;;;12.30;4.25;;;3.70;99.90;;;;;;5019441;28;20045;-81
2023/03/02 12:19:51;;;;;;;13.98;5.63;;;3.70;99.90;;;;;;5018339;28;20489;-73
2023/03/02 12:22:29;;;;;;;17.23;5.55;;;3.70;99.90;;;;;;5025981;28;20509;-73
2023/03/02 12:25:24;;;;;;;16.13;6.07;;;3.70;99.90;;;;;;5025436;28;20094;-73
2023/03/02 12:27:52;;;;;;;14.27;4.63;;;3.80;99.90;;;;;;5023103;28;20115;-73
2023/03/02 12:30:22;;;;;;;11.35;5.03;;;3.90;99.90;;;;;;5027342;28;20052;-73
2023/03/02 12:33:01;;;;;;;14.25;6.78;;;3.90;99.90;;;;;;5027411;28;20072;-73
2023/03/02 12:35:30;;;;;;;19.45;5.95;;;3.90;99.90;;;;;;5008750;28;20037;-73
2023/03/02 12:38:00;;;;;;;11.30;4.05;;;4.00;99.90;;;;;;5025772;28;20040;-73
2023/03/02 12:40:58;;;;;;;13.52;5.47;;;4.00;99.90;;;;;;5025924;28;20083;-73
2023/03/02 12:43:28;;;;;;;15.80;5.22;;;4.00;99.90;;;;;;4989941;28;20041;-73
2023/03/02 12:45:57;;;;;;;12.50;4.07;;;4.00;99.90;;;;;;5025791;28;20077;-73
2023/03/02 12:48:22;;;;;;;10.00;4.45;;;4.00;99.90;;;;;;5026198;28;20124;-73
2023/03/02 12:50:48;;;;;;;11.77;5.07;;;4.00;99.90;;;;;;5009666;28;20128;-73
2023/03/02 12:53:18;;;;;;;12.52;4.85;;;4.00;99.90;;;;;;5025866;28;20071;-73
2023/03/02 12:55:44;;;;;;;11.35;4.47;;;4.00;99.90;;;;;;5024935;28;20033;-73
2023/03/02 12:58:28;;;;;;;11.63;3.92;;;4.10;99.90;;;;;;5026943;28;20045;-73